Time;durP1;ratioP1;P1;durP2;ratioP2;P2;SDS_P1;SDS_P2;PMS_P1;PMS_P2;Temp;Humidity;BMP_temperature;BMP_pressure;BME280_temperature;BME280_humidity;BME280_pressure;Samples;Min_cycle;Max_cycle;Signal;HPM_P1;HPM_P2
2023/07/03 00:00:12;;;;;;;;;;;15.70;99.90;;;;;;5068619;28;20567;-76
2023/07/03 00:02:39;;;;;;;5.95;2.40;;;15.80;99.90;;;;;;5087562;28;19920;-76
2023/07/03 00:05:10;;;;;;;6.03;2.50;;;15.80;99.90;;;;;;5085701;28;20218;-77
2023/07/03 00:07:39;;;;;;;7.05;2.10;;;15.80;99.90;;;;;;5057176;28;20105;-76
2023/07/03 00:10:06;;;;;;;5.50;2.40;;;15.80;99.90;;;;;;5079500;28;20036;-77
2023/07/03 00:12:32;;;;;;;7.35;2.33;;;15.80;99.90;;;;;;5086822;28;20613;-76
2023/07/03 00:14:58;;;;;;;5.35;2.42;;;15.80;99.90;;;;;;5079914;28;20114;-76
2023/07/03 00:17:23;;;;;;;6.63;2.50;;;15.80;99.90;;;;;;5076849;28;20124;-76
2023/07/03 00:19:49;;;;;;;8.25;3.15;;;15.80;99.90;;;;;;5074002;28;20123;-77
2023/07/03 00:22:15;;;;;;;7.65;3.17;;;15.80;99.90;;;;;;5085844;28;20039;-77
2023/07/03 00:24:40;;;;;;;5.85;2.85;;;15.80;99.90;;;;;;5089997;28;20567;-77
2023/07/03 00:27:06;;;;;;;6.10;2.75;;;15.80;99.90;;;;;;5084218;28;20071;-77
2023/07/03 00:29:33;;;;;;;6.72;2.78;;;15.80;99.90;;;;;;5076471;28;20056;-76
2023/07/03 00:32:00;;;;;;;5.40;2.25;;;15.80;99.90;;;;;;5082981;28;20198;-76
2023/07/03 00:34:26;;;;;;;4.70;2.13;;;15.80;99.90;;;;;;5078585;28;20068;-77
2023/07/03 00:36:52;;;;;;;6.18;2.20;;;15.80;99.90;;;;;;5081429;28;20043;-76
2023/07/03 00:39:20;;;;;;;6.43;2.20;;;15.80;99.90;;;;;;5056076;28;20040;-76
2023/07/03 00:41:46;;;;;;;6.13;2.28;;;15.80;99.90;;;;;;5064169;28;20474;-76
2023/07/03 00:44:14;;;;;;;7.82;2.80;;;15.80;99.90;;;;;;5059029;28;20075;-76
2023/07/03 00:46:43;;;;;;;4.88;2.50;;;15.80;99.90;;;;;;5082477;28;20040;-76
2023/07/03 00:49:10;;;;;;;5.60;2.30;;;15.90;84.60;;;;;;5067497;28;20157;-76
2023/07/03 00:51:42;;;;;;;4.68;2.38;;;15.80;98.50;;;;;;5066840;28;20497;-76
2023/07/03 00:54:08;;;;;;;4.50;2.00;;;15.80;99.40;;;;;;5068930;28;20040;-76
2023/07/03 00:56:34;;;;;;;4.40;2.20;;;15.80;97.40;;;;;;5088567;28;20124;-77
2023/07/03 00:59:01;;;;;;;7.18;2.55;;;15.80;94.40;;;;;;5080756;28;20101;-76
2023/07/03 01:01:37;;;;;;;5.00;2.10;;;15.80;88.90;;;;;;5072609;28;20043;-77
2023/07/03 01:04:16;;;;;;;6.75;2.50;;;15.80;97.40;;;;;;5089710;28;20083;-76
2023/07/03 01:06:51;;;;;;;6.85;2.58;;;15.80;89.10;;;;;;5058527;28;20408;-76
2023/07/03 01:09:22;;;;;;;4.68;2.00;;;15.80;97.10;;;;;;5077479;28;20044;-75
2023/07/03 01:11:48;;;;;;;5.10;2.25;;;15.80;99.90;;;;;;5052421;28;20087;-76
2023/07/03 01:14:17;;;;;;;;;;;15.70;99.90;;;;;;5054337;28;20365;-76
2023/07/03 01:16:45;;;;;;;5.50;1.92;;;15.80;94.00;;;;;;5074381;28;20270;-76
2023/07/03 01:19:20;;;;;;;3.67;2.00;;;15.70;98.20;;;;;;5080475;28;20115;-76
2023/07/03 01:22:19;;;;;;;6.20;2.33;;;15.80;99.50;;;;;;5078234;28;20047;-76
2023/07/03 01:24:50;;;;;;;4.00;1.90;;;15.70;99.90;;;;;;5056517;28;20052;-76
2023/07/03 01:27:22;;;;;;;5.63;2.25;;;15.70;99.90;;;;;;5075044;28;20044;-76
2023/07/03 01:29:50;;;;;;;5.55;1.90;;;15.70;99.90;;;;;;5089123;28;20047;-76
2023/07/03 01:32:19;;;;;;;5.10;2.25;;;15.70;99.90;;;;;;5074441;28;20091;-76
2023/07/03 01:34:46;;;;;;;4.60;1.95;;;15.70;99.90;;;;;;5081444;28;20076;-77
2023/07/03 01:37:14;;;;;;;6.80;2.38;;;15.70;99.90;;;;;;5063205;28;20066;-77
2023/07/03 01:39:45;;;;;;;6.38;2.47;;;15.70;99.90;;;;;;5074007;28;20119;-77
2023/07/03 01:42:12;;;;;;;4.40;1.83;;;15.70;99.90;;;;;;5079339;28;20119;-77
2023/07/03 01:44:38;;;;;;;3.90;1.88;;;15.70;99.90;;;;;;5075692;28;20090;-77
2023/07/03 01:47:12;;;;;;;5.15;2.30;;;15.70;99.90;;;;;;5088788;28;20488;-77
2023/07/03 01:49:38;;;;;;;5.68;2.08;;;15.70;99.90;;;;;;5070449;28;20432;-76
2023/07/03 01:52:28;;;;;;;;;;;15.70;99.90;;;;;;5079446;28;20400;-76
2023/07/03 01:55:15;;;;;;;6.20;2.20;;;15.70;99.90;;;;;;5074258;28;20001;-77
2023/07/03 01:57:52;;;;;;;6.50;2.08;;;15.60;99.90;;;;;;5088525;28;20047;-76
2023/07/03 02:00:50;;;;;;;;;;;15.60;99.90;;;;;;5088290;28;20044;-77
2023/07/03 02:03:31;;;;;;;8.25;2.45;;;15.60;99.90;;;;;;5081729;28;20299;-77
2023/07/03 02:06:04;;;;;;;3.55;1.75;;;15.60;99.90;;;;;;5065146;28;20465;-77
2023/07/03 02:08:31;;;;;;;6.85;2.47;;;15.50;99.90;;;;;;5072769;28;20048;-77
2023/07/03 02:10:57;;;;;;;3.38;1.65;;;15.50;99.90;;;;;;5074621;28;20463;-77
2023/07/03 02:13:23;;;;;;;3.85;1.70;;;15.40;99.90;;;;;;5070757;28;20041;-77
2023/07/03 02:15:48;;;;;;;4.00;1.75;;;15.40;99.90;;;;;;5074571;28;20044;-77
2023/07/03 02:18:17;;;;;;;5.05;1.92;;;15.30;99.90;;;;;;5055891;28;20044;-77
2023/07/03 02:20:49;;;;;;;5.53;1.92;;;15.30;99.90;;;;;;5077857;28;20113;-77
2023/07/03 02:23:15;;;;;;;5.40;1.80;;;15.20;99.90;;;;;;5086290;28;20032;-77
2023/07/03 02:25:41;;;;;;;;;;;15.20;99.90;;;;;;5074595;28;20040;-77
2023/07/03 02:28:07;;;;;;;5.80;1.80;;;15.10;1.00;;;;;;5058763;28;19923;-77
2023/07/03 02:30:33;;;;;;;4.82;1.88;;;15.10;1.00;;;;;;5067995;28;20048;-77
2023/07/03 02:32:58;;;;;;;4.82;1.83;;;15.00;1.00;;;;;;5088803;28;20388;-77
2023/07/03 02:35:27;;;;;;;5.60;1.92;;;14.90;1.00;;;;;;5088571;28;20132;-77
2023/07/03 02:37:53;;;;;;;6.30;2.10;;;14.90;1.00;;;;;;5088578;28;20040;-76
2023/07/03 02:40:19;;;;;;;5.20;1.38;;;14.80;1.00;;;;;;5067622;28;20040;-76
2023/07/03 02:42:44;;;;;;;3.17;1.20;;;14.80;1.00;;;;;;5086389;28;20541;-76
2023/07/03 02:45:10;;;;;;;6.15;1.95;;;14.80;1.00;;;;;;5083666;28;20532;-76
2023/07/03 02:47:37;;;;;;;6.95;1.90;;;14.70;1.00;;;;;;5088573;28;20056;-76
2023/07/03 02:50:07;;;;;;;3.85;1.50;;;14.70;99.90;;;;;;5088863;28;20047;-77
2023/07/03 02:52:33;;;;;;;8.05;2.00;;;14.70;99.90;;;;;;5089618;28;20564;-77
2023/07/03 02:54:59;;;;;;;6.55;1.45;;;14.70;99.90;;;;;;5092592;28;20083;-76
2023/07/03 02:57:24;;;;;;;4.30;1.35;;;14.70;99.90;;;;;;5080993;28;20507;-76
2023/07/03 02:59:50;;;;;;;5.40;1.60;;;14.70;91.60;;;;;;5092523;28;20035;-76
2023/07/03 03:02:19;;;;;;;4.28;1.40;;;14.60;83.90;;;;;;5091934;28;20054;-76
2023/07/03 03:04:47;;;;;;;6.03;1.65;;;14.60;50.60;;;;;;5091957;28;20051;-76
2023/07/03 03:07:13;;;;;;;4.75;1.50;;;14.60;49.90;;;;;;5091733;28;20434;-76
2023/07/03 03:09:38;;;;;;;4.30;1.40;;;14.50;76.10;;;;;;5090336;28;20121;-76
2023/07/03 03:12:04;;;;;;;6.88;1.92;;;14.50;98.90;;;;;;5075134;28;20119;-77
2023/07/03 03:14:30;;;;;;;4.68;1.30;;;14.50;66.50;;;;;;5071937;28;20102;-77
2023/07/03 03:16:57;;;;;;;5.35;1.33;;;14.40;93.90;;;;;;5082207;28;20040;-77
2023/07/03 03:19:22;;;;;;;2.70;1.10;;;14.40;70.20;;;;;;5087918;28;20119;-76
2023/07/03 03:21:49;;;;;;;4.32;1.45;;;14.40;62.50;;;;;;5081447;28;20123;-76
2023/07/03 03:24:24;;;;;;;6.38;1.40;;;14.30;20.10;;;;;;5074701;28;20035;-76
2023/07/03 03:26:50;;;;;;;3.50;1.00;;;14.30;27.60;;;;;;5082446;28;20546;-76
2023/07/03 03:29:16;;;;;;;2.03;1.00;;;14.20;53.20;;;;;;5086422;28;20047;-76
2023/07/03 03:31:42;;;;;;;3.92;0.90;;;14.20;60.00;;;;;;5072175;28;20070;-76
2023/07/03 03:34:07;;;;;;;5.03;1.10;;;14.20;86.00;;;;;;5082350;28;20058;-76
2023/07/03 03:36:33;;;;;;;2.22;0.80;;;14.10;97.00;;;;;;5071896;28;20477;-76
2023/07/03 03:38:59;;;;;;;3.47;1.20;;;14.10;99.90;;;;;;5071164;28;20113;-77
2023/07/03 03:41:25;;;;;;;2.95;1.00;;;14.10;99.90;;;;;;5057664;28;20063;-76
2023/07/03 03:43:50;;;;;;;3.85;1.17;;;14.00;99.90;;;;;;5074591;28;20400;-76
2023/07/03 03:46:16;;;;;;;2.58;1.08;;;14.00;99.90;;;;;;5073405;28;20071;-76
2023/07/03 03:48:41;;;;;;;2.65;0.88;;;14.00;99.90;;;;;;5078759;28;20146;-76
2023/07/03 03:51:09;;;;;;;3.85;1.20;;;14.00;99.90;;;;;;5061344;28;20047;-76
2023/07/03 03:53:34;;;;;;;3.55;1.42;;;14.00;99.90;;;;;;5069462;28;20047;-76
2023/07/03 03:56:00;;;;;;;4.00;1.30;;;14.00;99.90;;;;;;5054568;28;20040;-76
2023/07/03 03:58:26;;;;;;;2.65;0.90;;;14.00;99.90;;;;;;5068400;28;20487;-76
2023/07/03 04:00:51;;;;;;;2.05;1.00;;;14.00;99.90;;;;;;5078951;28;20035;-76
2023/07/03 04:03:17;;;;;;;1.90;0.77;;;13.90;99.90;;;;;;5083832;28;20043;-76
2023/07/03 04:05:46;;;;;;;3.08;1.10;;;13.90;99.90;;;;;;5053336;28;20072;-76
2023/07/03 04:08:12;;;;;;;4.22;1.05;;;13.90;99.90;;;;;;5084198;28;20043;-77
2023/07/03 04:10:38;;;;;;;2.67;1.10;;;13.90;99.90;;;;;;5077328;28;20534;-77
2023/07/03 04:13:03;;;;;;;3.95;1.10;;;13.90;99.90;;;;;;5072495;28;20109;-75
2023/07/03 04:15:33;;;;;;;3.35;1.23;;;13.80;99.90;;;;;;5057102;28;20374;-72
2023/07/03 04:17:59;;;;;;;3.92;1.10;;;13.80;99.90;;;;;;5078592;28;20041;-76
2023/07/03 04:20:26;;;;;;;2.30;0.82;;;13.90;99.90;;;;;;5080530;28;20349;-76
2023/07/03 04:22:54;;;;;;;4.57;1.52;;;13.80;1.00;;;;;;5057151;28;20168;-76
2023/07/03 04:25:20;;;;;;;3.97;1.40;;;13.90;1.00;;;;;;5067963;28;20052;-75
2023/07/03 04:27:46;;;;;;;5.38;1.73;;;13.90;1.00;;;;;;5060278;28;20047;-76
2023/07/03 04:30:12;;;;;;;5.88;1.58;;;14.00;1.00;;;;;;5081460;28;20119;-75
2023/07/03 04:32:38;;;;;;;4.50;1.40;;;14.00;1.00;;;;;;5082470;28;20043;-75
2023/07/03 04:35:06;;;;;;;3.60;1.20;;;14.10;1.00;;;;;;5073349;28;20401;-74
2023/07/03 04:37:32;;;;;;;4.68;1.10;;;14.10;1.00;;;;;;5058910;28;20039;-72
2023/07/03 04:39:58;;;;;;;3.88;0.95;;;14.10;8.50;;;;;;5077010;28;20044;-72
2023/07/03 04:42:24;;;;;;;5.05;1.17;;;14.10;49.80;;;;;;5074871;28;20037;-72
2023/07/03 04:44:50;;;;;;;3.33;1.30;;;14.20;99.90;;;;;;5075729;28;20040;-72
2023/07/03 04:47:16;;;;;;;4.40;1.40;;;14.20;99.90;;;;;;5080262;28;20056;-72
2023/07/03 04:49:43;;;;;;;6.55;1.60;;;14.20;99.90;;;;;;5076665;28;20044;-74
2023/07/03 04:52:09;;;;;;;4.55;1.05;;;14.20;99.90;;;;;;5078423;28;20317;-74
2023/07/03 04:54:37;;;;;;;5.00;1.45;;;14.20;99.90;;;;;;5081391;28;20110;-73
2023/07/03 04:57:03;;;;;;;6.13;1.48;;;14.30;99.90;;;;;;5084365;28;20131;-74
2023/07/03 04:59:29;;;;;;;;;;;14.40;99.90;;;;;;5062146;28;20120;-74
2023/07/03 05:01:54;;;;;;;6.45;1.77;;;14.40;99.90;;;;;;5080418;28;20463;-74
2023/07/03 05:04:20;;;;;;;4.50;1.58;;;14.60;99.90;;;;;;5084206;28;20472;-74
2023/07/03 05:06:47;;;;;;;3.85;1.40;;;14.60;99.90;;;;;;5066750;28;20142;-73
2023/07/03 05:09:12;;;;;;;;;;;14.70;99.90;;;;;;5087580;28;20036;-73
2023/07/03 05:11:38;;;;;;;5.38;1.50;;;14.80;99.90;;;;;;5089058;28;19923;-73
2023/07/03 05:14:04;;;;;;;4.60;1.27;;;14.80;99.90;;;;;;5083601;28;20196;-73
2023/07/03 05:16:29;;;;;;;4.75;1.30;;;14.90;99.90;;;;;;5048329;28;20129;-73
2023/07/03 05:18:55;;;;;;;9.73;1.80;;;15.00;99.90;;;;;;5082250;28;20335;-73
2023/07/03 05:21:24;;;;;;;4.85;1.55;;;15.10;48.50;;;;;;5087331;28;20096;-73
2023/07/03 05:23:49;;;;;;;5.05;1.40;;;15.20;26.80;;;;;;5053645;28;20120;-73
2023/07/03 05:26:15;;;;;;;5.07;1.55;;;15.30;1.00;;;;;;5081079;28;20136;-73
2023/07/03 05:28:41;;;;;;;4.88;1.60;;;15.40;1.00;;;;;;5082905;28;20040;-74
2023/07/03 05:31:06;;;;;;;5.65;1.60;;;15.50;99.90;;;;;;5080184;28;20047;-74
2023/07/03 05:33:32;;;;;;;7.38;2.00;;;15.60;99.90;;;;;;5074771;28;20473;-74
2023/07/03 05:36:00;;;;;;;6.85;1.40;;;15.70;99.90;;;;;;5076279;28;20122;-75
2023/07/03 05:38:27;;;;;;;6.28;1.55;;;15.70;99.90;;;;;;5076306;28;20121;-74
2023/07/03 05:40:53;;;;;;;;;;;15.70;1.00;;;;;;5072790;28;20827;-76
2023/07/03 05:43:19;;;;;;;6.32;1.88;;;15.70;27.40;;;;;;5080151;28;20258;-76
2023/07/03 05:45:47;;;;;;;5.28;1.38;;;15.60;1.00;;;;;;5068625;28;20043;-76
2023/07/03 05:48:12;;;;;;;4.85;1.40;;;15.50;1.00;;;;;;5083249;28;20044;-76
2023/07/03 05:50:38;;;;;;;6.15;1.58;;;15.30;1.00;;;;;;5069087;28;20105;-76
2023/07/03 05:53:04;;;;;;;5.82;1.30;;;15.20;99.90;;;;;;5082590;28;20035;-76
2023/07/03 05:55:32;;;;;;;6.32;1.38;;;15.20;99.90;;;;;;5068224;28;20097;-76
2023/07/03 05:57:58;;;;;;;5.47;1.45;;;15.10;1.00;;;;;;5082369;28;20123;-75
2023/07/03 06:00:24;;;;;;;4.22;1.10;;;15.10;70.20;;;;;;5076450;28;20203;-76
2023/07/03 06:02:53;;;;;;;5.35;1.27;;;15.10;82.20;;;;;;5052009;28;20055;-76
2023/07/03 06:05:20;;;;;;;5.55;1.20;;;15.00;27.00;;;;;;5071162;28;20067;-76
2023/07/03 06:07:46;;;;;;;3.80;1.10;;;15.00;1.00;;;;;;5072105;28;20477;-76
2023/07/03 06:10:12;;;;;;;8.18;1.27;;;15.10;75.80;;;;;;5088744;28;20126;-76
2023/07/03 06:12:39;;;;;;;3.30;1.10;;;15.30;99.90;;;;;;5089116;28;20572;-76
2023/07/03 06:15:07;;;;;;;4.22;1.30;;;15.50;99.90;;;;;;5088574;28;20075;-76
2023/07/03 06:17:32;;;;;;;4.53;1.30;;;15.70;8.50;;;;;;5083403;28;20108;-75
2023/07/03 06:19:58;;;;;;;5.72;1.52;;;15.70;99.90;;;;;;5068519;28;20436;-76
2023/07/03 06:22:24;;;;;;;3.97;1.30;;;15.80;99.90;;;;;;5069628;28;20040;-76
2023/07/03 06:24:50;;;;;;;7.30;1.52;;;15.90;99.90;;;;;;5062398;28;20501;-76
2023/07/03 06:27:16;;;;;;;6.90;1.45;;;16.10;85.70;;;;;;5072206;28;20048;-76
2023/07/03 06:29:42;;;;;;;;;;;16.20;17.30;;;;;;5093243;28;20089;-76
2023/07/03 06:32:10;;;;;;;5.03;1.58;;;16.30;99.90;;;;;;5079344;28;20397;-76
2023/07/03 06:34:36;;;;;;;5.00;1.40;;;16.40;99.90;;;;;;5075728;28;20106;-76
2023/07/03 06:37:05;;;;;;;3.70;1.23;;;16.50;99.90;;;;;;5075828;28;20044;-76
2023/07/03 06:39:32;;;;;;;5.45;1.38;;;16.40;99.90;;;;;;5073978;28;20048;-76
2023/07/03 06:41:58;;;;;;;3.95;1.40;;;16.40;99.90;;;;;;5084419;28;20442;-76
2023/07/03 06:44:24;;;;;;;5.60;1.88;;;16.30;99.90;;;;;;5092331;28;20513;-76
2023/07/03 06:46:53;;;;;;;6.70;1.77;;;16.30;99.90;;;;;;5092779;28;20078;-73
2023/07/03 06:49:22;;;;;;;7.43;1.55;;;16.10;99.90;;;;;;5077603;28;20048;-76
2023/07/03 06:51:48;;;;;;;6.25;1.67;;;16.00;94.30;;;;;;5092516;28;20551;-76
2023/07/03 06:54:14;;;;;;;;;;;15.50;1.00;;;;;;5083208;28;20044;-76
2023/07/03 06:56:40;;;;;;;6.10;1.63;;;15.30;99.90;;;;;;5073847;28;19916;-76
2023/07/03 06:59:05;;;;;;;5.22;1.30;;;15.10;1.00;;;;;;5084950;28;20032;-76
2023/07/03 07:01:31;;;;;;;3.72;1.23;;;15.00;85.40;;;;;;5071760;28;20067;-77
2023/07/03 07:03:57;;;;;;;5.82;1.30;;;14.90;99.90;;;;;;5073646;28;20040;-76
2023/07/03 07:06:28;;;;;;;4.45;1.10;;;14.80;99.90;;;;;;5080260;28;20088;-77
2023/07/03 07:08:54;;;;;;;4.93;1.35;;;14.70;99.90;;;;;;5090816;28;20117;-76
2023/07/03 07:11:22;;;;;;;;;;;14.60;99.90;;;;;;5092499;28;20043;-76
2023/07/03 07:13:48;;;;;;;;;;;14.60;99.90;;;;;;5077808;28;19918;-76
2023/07/03 07:16:17;;;;;;;3.97;0.93;;;14.60;99.90;;;;;;5092112;28;20013;-76
2023/07/03 07:18:45;;;;;;;5.72;1.25;;;14.70;99.90;;;;;;5077608;28;20791;-77
2023/07/03 07:21:11;;;;;;;4.13;0.93;;;14.70;99.90;;;;;;5091832;28;20040;-77
2023/07/03 07:23:36;;;;;;;4.95;1.70;;;14.80;99.90;;;;;;5091829;28;20182;-77
2023/07/03 07:26:02;;;;;;;5.13;1.35;;;14.90;99.90;;;;;;5091577;28;20036;-75
2023/07/03 07:28:28;;;;;;;6.03;1.30;;;14.90;99.90;;;;;;5080092;28;20055;-75
2023/07/03 07:30:55;;;;;;;4.18;1.25;;;15.00;99.90;;;;;;5085491;28;20063;-75
2023/07/03 07:33:22;;;;;;;5.43;1.45;;;15.00;99.90;;;;;;5081596;28;20332;-75
2023/07/03 07:35:49;;;;;;;2.30;0.70;;;15.10;99.90;;;;;;5091239;28;20404;-75
2023/07/03 07:38:18;;;;;;;2.47;0.80;;;15.20;99.90;;;;;;5091029;28;20035;-76
2023/07/03 07:40:44;;;;;;;4.75;0.82;;;15.30;99.90;;;;;;5074950;28;20048;-76
2023/07/03 07:43:11;;;;;;;4.57;1.05;;;15.40;99.90;;;;;;5091668;28;20397;-76
2023/07/03 07:45:37;;;;;;;3.72;1.20;;;15.50;99.90;;;;;;5091741;28;20047;-76
2023/07/03 07:48:04;;;;;;;3.42;1.00;;;15.60;99.90;;;;;;5091354;28;20366;-76
2023/07/03 07:50:34;;;;;;;6.50;1.60;;;15.70;94.30;;;;;;5091359;28;20059;-76
2023/07/03 07:52:59;;;;;;;4.63;1.27;;;15.70;99.90;;;;;;5091186;28;20054;-76
2023/07/03 07:55:26;;;;;;;4.72;1.20;;;15.70;55.60;;;;;;5091351;28;20036;-76
2023/07/03 07:57:51;;;;;;;3.30;1.00;;;15.80;1.00;;;;;;5091703;28;20056;-76
2023/07/03 08:00:18;;;;;;;3.40;0.95;;;15.90;99.90;;;;;;5057950;28;20097;-75
2023/07/03 08:02:43;;;;;;;5.72;1.10;;;16.00;99.90;;;;;;5091224;28;20101;-76
2023/07/03 08:05:09;;;;;;;2.95;1.05;;;15.90;99.90;;;;;;5092253;28;20419;-75
2023/07/03 08:07:35;;;;;;;3.20;1.05;;;16.00;99.90;;;;;;5074083;28;20147;-75
2023/07/03 08:10:00;;;;;;;2.63;0.93;;;16.20;1.00;;;;;;5090751;28;20402;-75
2023/07/03 08:12:26;;;;;;;3.40;1.17;;;16.40;99.90;;;;;;5090747;28;20130;-75
2023/07/03 08:14:52;;;;;;;6.13;1.48;;;16.70;99.90;;;;;;5070605;28;20155;-75
2023/07/03 08:17:18;;;;;;;5.20;1.38;;;16.70;99.90;;;;;;5084740;28;20032;-75
2023/07/03 08:19:46;;;;;;;4.05;1.40;;;16.70;99.90;;;;;;5070590;28;20071;-75
2023/07/03 08:22:12;;;;;;;5.55;1.40;;;16.90;99.90;;;;;;5067759;28;20519;-75
2023/07/03 08:24:38;;;;;;;5.28;1.30;;;16.90;99.90;;;;;;5078148;28;20044;-75
2023/07/03 08:27:04;;;;;;;3.55;1.17;;;17.00;1.00;;;;;;5090709;28;20066;-75
2023/07/03 08:29:29;;;;;;;4.05;1.33;;;17.10;99.90;;;;;;5084722;28;20053;-75
2023/07/03 08:31:55;;;;;;;4.65;1.20;;;17.20;99.90;;;;;;5082330;28;20054;-75
2023/07/03 08:34:21;;;;;;;2.20;0.95;;;17.30;99.90;;;;;;5073259;28;20059;-76
2023/07/03 08:36:49;;;;;;;3.22;1.05;;;17.30;3.00;;;;;;5090770;28;20078;-76
2023/07/03 08:39:15;;;;;;;4.32;1.00;;;17.40;7.60;;;;;;5090232;28;20583;-75
2023/07/03 08:41:54;;;;;;;2.50;0.90;;;17.70;1.00;;;;;;5090294;28;20122;-75
2023/07/03 08:44:20;;;;;;;4.15;0.90;;;17.90;1.00;;;;;;5090285;28;20122;-75
2023/07/03 08:46:46;;;;;;;;;;;18.00;99.90;;;;;;5082854;28;20186;-75
2023/07/03 08:49:15;;;;;;;6.15;1.50;;;18.00;99.90;;;;;;5084276;28;19916;-75
2023/07/03 08:51:42;;;;;;;6.07;1.30;;;18.10;99.90;;;;;;5073256;28;20047;-76
2023/07/03 08:54:30;;;;;;;3.13;0.93;;;18.30;99.90;;;;;;5073335;28;20128;-75
2023/07/03 08:56:57;;;;;;;4.20;1.17;;;18.50;99.90;;;;;;5076034;28;20130;-75
2023/07/03 08:59:23;;;;;;;5.60;1.00;;;18.30;99.90;;;;;;5090258;28;20127;-75
2023/07/03 09:02:09;;;;;;;;;;;18.10;99.90;;;;;;5072984;28;20118;-75
2023/07/03 09:04:52;;;;;;;5.05;1.20;;;17.80;99.90;;;;;;5089812;28;19966;-75
2023/07/03 09:07:27;;;;;;;5.03;1.17;;;17.50;1.00;;;;;;5089631;28;20067;-76
2023/07/03 09:10:24;;;;;;;2.15;0.80;;;16.90;1.00;;;;;;5089757;28;20512;-76
2023/07/03 09:13:04;;;;;;;2.70;0.80;;;16.30;1.00;;;;;;5079725;28;20113;-76
2023/07/03 09:16:06;;;;;;;3.35;0.80;;;15.90;99.90;;;;;;5083614;28;20412;-75
2023/07/03 09:18:42;;;;;;;2.63;0.82;;;15.80;1.00;;;;;;5069475;28;20516;-75
2023/07/03 09:21:08;;;;;;;2.60;0.85;;;15.80;1.00;;;;;;5076432;28;20036;-75
2023/07/03 09:23:49;;;;;;;3.33;0.90;;;15.80;99.90;;;;;;5089769;28;20044;-75
2023/07/03 09:26:26;;;;;;;5.65;1.05;;;15.80;99.90;;;;;;5082695;28;20032;-76
2023/07/03 09:28:58;;;;;;;3.78;1.13;;;15.90;99.90;;;;;;5067501;28;20048;-76
2023/07/03 09:31:26;;;;;;;4.93;1.27;;;15.80;99.90;;;;;;5089322;28;20040;-76
2023/07/03 09:33:52;;;;;;;3.78;0.98;;;15.80;1.00;;;;;;5089693;28;20048;-76
2023/07/03 09:36:31;;;;;;;3.67;1.00;;;15.90;1.00;;;;;;5075051;28;20503;-76
2023/07/03 09:39:04;;;;;;;4.72;1.33;;;15.90;99.90;;;;;;5089645;28;20446;-76
2023/07/03 09:41:33;;;;;;;3.25;1.00;;;16.00;91.80;;;;;;5060045;28;20079;-76
2023/07/03 09:44:12;;;;;;;4.60;1.05;;;16.00;99.90;;;;;;5072481;28;20044;-76
2023/07/03 09:46:38;;;;;;;4.38;1.08;;;16.10;7.60;;;;;;5075996;28;20044;-75
2023/07/03 09:49:08;;;;;;;4.70;1.13;;;16.10;29.80;;;;;;5089060;28;20036;-76
2023/07/03 09:51:37;;;;;;;4.20;1.00;;;16.10;99.90;;;;;;5071932;28;20070;-76
2023/07/03 09:54:17;;;;;;;3.67;1.13;;;16.10;99.90;;;;;;5089062;28;20450;-76
2023/07/03 09:56:42;;;;;;;4.10;1.42;;;16.30;99.90;;;;;;5088979;28;20044;-76
2023/07/03 09:59:09;;;;;;;6.50;1.40;;;16.30;99.90;;;;;;5080870;28;20105;-76
2023/07/03 10:01:39;;;;;;;3.13;1.00;;;16.30;99.90;;;;;;5082553;28;20099;-76
2023/07/03 10:04:08;;;;;;;3.33;0.90;;;16.30;99.90;;;;;;5082342;28;20041;-76
2023/07/03 10:06:35;;;;;;;2.58;0.80;;;16.10;99.90;;;;;;5064860;28;20052;-76
2023/07/03 10:09:05;;;;;;;1.13;0.55;;;16.00;69.20;;;;;;5088545;28;20139;-76
2023/07/03 10:11:59;;;;;;;3.65;1.00;;;16.10;99.90;;;;;;5088696;28;20048;-76
2023/07/03 10:14:33;;;;;;;3.92;1.00;;;15.90;1.00;;;;;;5076690;28;20064;-76
2023/07/03 10:17:00;;;;;;;3.42;0.80;;;15.80;99.90;;;;;;5088913;28;20122;-76
2023/07/03 10:19:27;;;;;;;2.90;0.80;;;15.70;1.00;;;;;;5088883;28;20504;-76
2023/07/03 10:21:54;;;;;;;3.38;0.80;;;15.60;51.70;;;;;;5089128;28;20123;-76
2023/07/03 10:24:20;;;;;;;1.75;0.98;;;15.40;99.90;;;;;;5071428;28;20044;-76
2023/07/03 10:26:53;;;;;;;1.13;0.60;;;15.30;99.90;;;;;;5071878;28;20504;-76
2023/07/03 10:29:37;;;;;;;2.13;0.75;;;15.30;1.00;;;;;;5088439;28;20043;-76
2023/07/03 10:32:15;;;;;;;2.42;0.73;;;15.30;99.90;;;;;;5088818;28;20052;-76
2023/07/03 10:35:04;;;;;;;1.80;0.65;;;15.60;99.90;;;;;;5075095;28;20059;-76
2023/07/03 10:37:46;;;;;;;2.42;0.77;;;16.00;1.00;;;;;;5074005;28;20047;-76
2023/07/03 10:40:17;;;;;;;3.13;1.10;;;16.30;99.90;;;;;;5071560;28;20389;-76
2023/07/03 10:42:52;;;;;;;4.55;1.20;;;16.40;82.30;;;;;;5088375;28;20128;-76
2023/07/03 10:45:19;;;;;;;3.33;1.00;;;16.30;1.30;;;;;;5061438;28;20041;-76
2023/07/03 10:48:21;;;;;;;4.53;1.05;;;16.30;1.00;;;;;;5084419;28;20048;-76
2023/07/03 10:51:12;;;;;;;2.88;0.90;;;16.10;99.90;;;;;;5088239;28;20058;-76
2023/07/03 10:54:03;;;;;;;5.18;1.10;;;15.80;99.90;;;;;;5082119;28;20044;-76
2023/07/03 10:56:34;;;;;;;3.10;0.90;;;15.60;50.70;;;;;;5082303;28;20119;-76
2023/07/03 10:59:34;;;;;;;1.63;0.68;;;15.40;99.90;;;;;;5058059;28;20047;-76
2023/07/03 11:02:17;;;;;;;2.55;0.75;;;15.50;99.90;;;;;;5088321;28;20431;-76
2023/07/03 11:04:53;;;;;;;4.43;1.05;;;15.60;99.90;;;;;;5071330;28;20066;-76
2023/07/03 11:07:36;;;;;;;4.28;1.08;;;15.80;1.00;;;;;;5071263;28;20048;-75
2023/07/03 11:10:10;;;;;;;2.65;0.90;;;16.10;1.00;;;;;;5071293;28;20135;-76
2023/07/03 11:12:54;;;;;;;4.95;0.90;;;16.50;54.70;;;;;;5058342;28;20054;-76
2023/07/03 11:15:28;;;;;;;4.32;1.20;;;16.70;99.90;;;;;;5074495;28;20393;-75
2023/07/03 11:18:17;;;;;;;3.88;1.10;;;17.00;94.70;;;;;;5092151;28;20465;-75
2023/07/03 11:21:10;;;;;;;3.42;1.02;;;17.60;95.00;;;;;;5077387;28;20403;-75
2023/07/03 11:23:58;;;;;;;5.72;1.40;;;17.80;1.00;;;;;;5091655;28;20111;-75
2023/07/03 11:26:41;;;;;;;3.15;1.17;;;17.70;99.90;;;;;;5080619;28;20036;-76
2023/07/03 11:29:10;;;;;;;3.40;1.00;;;17.70;1.00;;;;;;5091443;28;20047;-76
2023/07/03 11:31:39;;;;;;;5.07;1.20;;;17.50;99.90;;;;;;5091476;28;20036;-76
2023/07/03 11:34:08;;;;;;;2.95;1.27;;;17.50;18.50;;;;;;5091662;28;20463;-76
2023/07/03 11:36:43;;;;;;;2.25;0.70;;;17.40;97.90;;;;;;5083507;28;20119;-75
2023/07/03 11:39:21;;;;;;;5.65;1.45;;;17.50;99.90;;;;;;5072303;28;20537;-76
2023/07/03 11:41:54;;;;;;;2.63;0.85;;;17.40;1.00;;;;;;5074461;28;20040;-75
2023/07/03 11:44:29;;;;;;;2.08;0.70;;;17.30;1.00;;;;;;5076988;28;20048;-76
2023/07/03 11:46:58;;;;;;;4.07;0.90;;;17.20;11.90;;;;;;5072632;28;20037;-76
2023/07/03 11:49:28;;;;;;;3.58;0.80;;;17.10;8.50;;;;;;5070591;28;20173;-76
2023/07/03 11:52:03;;;;;;;2.45;0.80;;;17.00;60.50;;;;;;5090866;28;20456;-75
2023/07/03 11:54:31;;;;;;;4.15;0.80;;;16.90;99.90;;;;;;5090493;28;20044;-75
2023/07/03 11:57:05;;;;;;;2.42;0.90;;;16.80;99.90;;;;;;5074141;28;20070;-75
2023/07/03 11:59:36;;;;;;;6.90;1.20;;;17.10;99.90;;;;;;5091164;28;20079;-75
2023/07/03 12:02:11;;;;;;;4.00;1.15;;;17.30;99.90;;;;;;5073774;28;20187;-75
2023/07/03 12:04:43;;;;;;;2.88;0.93;;;17.50;22.20;;;;;;5074380;28;20044;-75
2023/07/03 12:07:29;;;;;;;3.78;1.00;;;17.50;1.00;;;;;;5086931;28;20072;-75
2023/07/03 12:10:17;;;;;;;3.75;1.27;;;17.50;31.20;;;;;;5053385;28;20514;-75
2023/07/03 12:12:50;;;;;;;3.17;1.05;;;17.50;36.70;;;;;;5070420;28;20072;-75
2023/07/03 12:15:18;;;;;;;5.75;1.40;;;17.50;1.00;;;;;;5085099;28;20036;-75
2023/07/03 12:17:44;;;;;;;3.70;0.90;;;17.50;1.00;;;;;;5092026;28;20524;-75
2023/07/03 12:20:20;;;;;;;;;;;17.50;1.00;;;;;;5078011;28;20077;-75
2023/07/03 12:22:50;;;;;;;3.90;0.80;;;17.60;1.00;;;;;;5076799;28;20292;-75
2023/07/03 12:25:25;;;;;;;3.50;1.05;;;17.60;1.00;;;;;;5073739;28;20434;-75
2023/07/03 12:27:52;;;;;;;3.67;0.90;;;17.50;99.90;;;;;;5076697;28;20044;-75
2023/07/03 12:30:27;;;;;;;3.00;0.80;;;17.40;99.90;;;;;;5090385;28;20085;-76
2023/07/03 12:32:54;;;;;;;3.33;0.82;;;17.30;1.00;;;;;;5090616;28;20093;-76
2023/07/03 12:35:31;;;;;;;3.13;1.10;;;17.30;1.00;;;;;;5090567;28;20040;-75
2023/07/03 12:38:04;;;;;;;3.45;1.02;;;17.30;1.00;;;;;;5073430;28;20382;-75
2023/07/03 12:40:30;;;;;;;2.53;0.77;;;17.30;23.00;;;;;;5090070;28;20082;-75
2023/07/03 12:42:56;;;;;;;;;;;17.30;52.50;;;;;;5076202;28;20040;-75
2023/07/03 12:45:24;;;;;;;2.60;0.80;;;17.40;97.90;;;;;;5090498;28;19920;-75
2023/07/03 12:48:18;;;;;;;3.88;1.13;;;17.40;25.80;;;;;;5073104;28;20075;-75
2023/07/03 12:50:55;;;;;;;3.60;1.00;;;17.40;18.30;;;;;;5077157;28;20048;-75
2023/07/03 12:53:22;;;;;;;2.90;1.20;;;17.40;1.00;;;;;;5087418;28;20512;-75
2023/07/03 12:55:59;;;;;;;3.65;0.98;;;17.50;99.90;;;;;;5073021;28;20397;-75
2023/07/03 12:58:25;;;;;;;5.85;0.93;;;17.60;99.90;;;;;;5090032;28;20052;-75
2023/07/03 13:01:02;;;;;;;;;;;17.70;99.90;;;;;;5090494;28;20489;-75
2023/07/03 13:03:27;;;;;;;4.80;1.08;;;17.70;99.90;;;;;;5089510;28;20376;-75
2023/07/03 13:05:53;;;;;;;;;;;17.70;99.90;;;;;;5072952;28;20149;-75